sensor_id;sensor_type;location;lat;lon;timestamp;temperature;humidity
29255;DHT22;16277;48.890;2.306;2023-05-16T00:01:14;14.80;99.90
29255;DHT22;16277;48.890;2.306;2023-05-16T00:16:18;14.40;99.90
29255;DHT22;16277;48.890;2.306;2023-05-16T00:31:24;14.90;99.90
29255;DHT22;16277;48.890;2.306;2023-05-16T00:46:28;14.60;99.90
29255;DHT22;16277;48.890;2.306;2023-05-16T01:01:34;14.10;99.90
29255;DHT22;16277;48.890;2.306;2023-05-16T01:33:14;14.50;99.90
29255;DHT22;16277;48.890;2.306;2023-05-16T01:48:22;14.40;99.90
29255;DHT22;16277;48.890;2.306;2023-05-16T02:03:29;14.50;99.90
29255;DHT22;16277;48.890;2.306;2023-05-16T02:18:34;13.90;99.90
29255;DHT22;16277;48.890;2.306;2023-05-16T02:33:40;14.00;99.90
29255;DHT22;16277;48.890;2.306;2023-05-16T02:48:44;13.90;99.90
29255;DHT22;16277;48.890;2.306;2023-05-16T03:03:49;13.50;99.90
29255;DHT22;16277;48.890;2.306;2023-05-16T03:18:54;13.10;99.90
29255;DHT22;16277;48.890;2.306;2023-05-16T03:33:58;13.10;99.90
29255;DHT22;16277;48.890;2.306;2023-05-16T03:49:03;13.00;99.90
29255;DHT22;16277;48.890;2.306;2023-05-16T04:04:07;12.60;99.90
29255;DHT22;16277;48.890;2.306;2023-05-16T04:19:12;13.00;99.90
29255;DHT22;16277;48.890;2.306;2023-05-16T04:34:16;12.60;99.90
29255;DHT22;16277;48.890;2.306;2023-05-16T04:49:21;12.40;99.90
29255;DHT22;16277;48.890;2.306;2023-05-16T05:04:26;12.20;99.90
29255;DHT22;16277;48.890;2.306;2023-05-16T05:19:30;12.10;99.90
29255;DHT22;16277;48.890;2.306;2023-05-16T05:34:35;12.20;99.90
29255;DHT22;16277;48.890;2.306;2023-05-16T05:49:39;13.00;99.90
29255;DHT22;16277;48.890;2.306;2023-05-16T06:04:44;13.00;99.90
29255;DHT22;16277;48.890;2.306;2023-05-16T06:19:49;13.20;99.90
29255;DHT22;16277;48.890;2.306;2023-05-16T06:34:54;12.90;99.90
29255;DHT22;16277;48.890;2.306;2023-05-16T06:49:59;13.50;99.90
29255;DHT22;16277;48.890;2.306;2023-05-16T07:05:05;14.40;99.90
29255;DHT22;16277;48.890;2.306;2023-05-16T07:20:10;14.30;99.90
29255;DHT22;16277;48.890;2.306;2023-05-16T07:35:16;14.80;99.90
29255;DHT22;16277;48.890;2.306;2023-05-16T07:50:21;14.50;99.90
29255;DHT22;16277;48.890;2.306;2023-05-16T08:05:26;14.90;99.90
29255;DHT22;16277;48.890;2.306;2023-05-16T08:20:31;14.80;99.90
29255;DHT22;16277;48.890;2.306;2023-05-16T08:35:35;14.70;99.90
29255;DHT22;16277;48.890;2.306;2023-05-16T08:50:40;15.50;98.40
29255;DHT22;16277;48.890;2.306;2023-05-16T09:05:45;15.80;97.30
29255;DHT22;16277;48.890;2.306;2023-05-16T09:20:50;16.00;95.80
29255;DHT22;16277;48.890;2.306;2023-05-16T09:35:56;16.00;94.60
29255;DHT22;16277;48.890;2.306;2023-05-16T09:51:04;15.70;94.20
29255;DHT22;16277;48.890;2.306;2023-05-16T10:06:09;15.80;94.70
29255;DHT22;16277;48.890;2.306;2023-05-16T10:21:17;16.00;94.00
29255;DHT22;16277;48.890;2.306;2023-05-16T10:36:23;15.50;94.80
29255;DHT22;16277;48.890;2.306;2023-05-16T10:51:35;16.50;94.20
29255;DHT22;16277;48.890;2.306;2023-05-16T11:06:52;16.70;93.30
29255;DHT22;16277;48.890;2.306;2023-05-16T11:22:10;17.20;94.40
29255;DHT22;16277;48.890;2.306;2023-05-16T11:37:19;17.70;92.20
29255;DHT22;16277;48.890;2.306;2023-05-16T11:52:24;17.20;91.50
29255;DHT22;16277;48.890;2.306;2023-05-16T12:07:30;17.30;91.80
29255;DHT22;16277;48.890;2.306;2023-05-16T12:22:34;17.60;90.80
29255;DHT22;16277;48.890;2.306;2023-05-16T12:37:39;17.30;90.10
29255;DHT22;16277;48.890;2.306;2023-05-16T12:52:50;18.20;87.10
29255;DHT22;16277;48.890;2.306;2023-05-16T13:07:55;18.20;85.70
29255;DHT22;16277;48.890;2.306;2023-05-16T13:22:59;18.60;83.70
29255;DHT22;16277;48.890;2.306;2023-05-16T13:38:06;18.40;79.90
29255;DHT22;16277;48.890;2.306;2023-05-16T13:53:11;20.70;77.70
29255;DHT22;16277;48.890;2.306;2023-05-16T14:08:17;21.70;74.10
29255;DHT22;16277;48.890;2.306;2023-05-16T14:23:22;26.00;58.10
29255;DHT22;16277;48.890;2.306;2023-05-16T14:38:26;27.20;52.00
29255;DHT22;16277;48.890;2.306;2023-05-16T14:53:31;24.60;55.70
29255;DHT22;16277;48.890;2.306;2023-05-16T15:08:36;25.70;54.80
29255;DHT22;16277;48.890;2.306;2023-05-16T15:23:41;28.40;47.80
29255;DHT22;16277;48.890;2.306;2023-05-16T15:38:45;28.50;48.60
29255;DHT22;16277;48.890;2.306;2023-05-16T15:53:50;24.80;54.50
29255;DHT22;16277;48.890;2.306;2023-05-16T16:08:55;27.40;49.60
29255;DHT22;16277;48.890;2.306;2023-05-16T16:23:59;26.90;48.90
29255;DHT22;16277;48.890;2.306;2023-05-16T16:39:05;23.60;53.70
29255;DHT22;16277;48.890;2.306;2023-05-16T16:54:09;23.40;56.20
29255;DHT22;16277;48.890;2.306;2023-05-16T17:09:15;24.10;54.60
29255;DHT22;16277;48.890;2.306;2023-05-16T17:24:20;23.40;54.70
29255;DHT22;16277;48.890;2.306;2023-05-16T17:39:25;23.80;55.50
29255;DHT22;16277;48.890;2.306;2023-05-16T17:54:29;23.90;56.50
29255;DHT22;16277;48.890;2.306;2023-05-16T18:09:34;23.50;56.50
29255;DHT22;16277;48.890;2.306;2023-05-16T18:24:39;22.30;58.40
29255;DHT22;16277;48.890;2.306;2023-05-16T18:39:43;21.40;61.00
29255;DHT22;16277;48.890;2.306;2023-05-16T18:54:48;20.80;62.70
29255;DHT22;16277;48.890;2.306;2023-05-16T19:09:52;20.50;65.10
29255;DHT22;16277;48.890;2.306;2023-05-16T19:24:57;20.30;66.30
29255;DHT22;16277;48.890;2.306;2023-05-16T19:40:01;19.50;69.00
29255;DHT22;16277;48.890;2.306;2023-05-16T19:55:07;19.30;70.00
29255;DHT22;16277;48.890;2.306;2023-05-16T20:10:12;19.20;72.80
29255;DHT22;16277;48.890;2.306;2023-05-16T20:25:18;18.90;76.70
29255;DHT22;16277;48.890;2.306;2023-05-16T20:40:23;18.70;79.30
29255;DHT22;16277;48.890;2.306;2023-05-16T20:55:27;18.70;81.10
29255;DHT22;16277;48.890;2.306;2023-05-16T21:10:32;18.40;83.50
29255;DHT22;16277;48.890;2.306;2023-05-16T21:25:37;18.10;85.20
29255;DHT22;16277;48.890;2.306;2023-05-16T21:40:43;18.20;85.10
29255;DHT22;16277;48.890;2.306;2023-05-16T21:55:47;18.20;86.30
29255;DHT22;16277;48.890;2.306;2023-05-16T22:10:52;17.80;87.60
29255;DHT22;16277;48.890;2.306;2023-05-16T22:25:56;17.60;89.10
29255;DHT22;16277;48.890;2.306;2023-05-16T22:41:01;17.60;90.30
29255;DHT22;16277;48.890;2.306;2023-05-16T22:56:06;17.30;91.00
29255;DHT22;16277;48.890;2.306;2023-05-16T23:11:10;17.00;92.00
29255;DHT22;16277;48.890;2.306;2023-05-16T23:26:15;17.30;92.00
29255;DHT22;16277;48.890;2.306;2023-05-16T23:41:19;17.10;92.40
29255;DHT22;16277;48.890;2.306;2023-05-16T23:56:24;17.10;92.50
